createdAt,value
2022-12-25T00:01:38.457Z,101546.19
2022-12-25T00:04:04.992Z,101548.28
2022-12-25T00:06:31.337Z,101557.22
2022-12-25T00:08:57.695Z,101552.19
2022-12-25T00:11:24.088Z,101550.31
2022-12-25T00:13:50.683Z,101537.06
2022-12-25T00:16:20.206Z,101538.09
2022-12-25T00:18:47.145Z,101545.22
2022-12-25T00:21:14.493Z,101541.72
2022-12-25T00:23:41.169Z,101531.41
2022-12-25T00:26:10.190Z,101532.97
2022-12-25T00:28:36.870Z,101549.09
2022-12-25T00:31:08.264Z,101543.75
2022-12-25T00:33:36.812Z,101542.69
2022-12-25T00:36:06.101Z,101533.69
2022-12-25T00:38:34.706Z,101530.75
2022-12-25T00:41:52.674Z,101533.16
2022-12-25T00:44:19.274Z,101525.97
2022-12-25T00:46:45.635Z,101529.09
2022-12-25T00:49:13.403Z,101539.94
2022-12-25T00:51:39.791Z,101542.28
2022-12-25T00:54:06.502Z,101543.06
2022-12-25T00:56:33.677Z,101535.94
2022-12-25T00:59:00.018Z,101546.75
2022-12-25T01:01:26.490Z,101540.69
2022-12-25T01:03:52.950Z,101541.97
2022-12-25T01:06:19.298Z,101546.72
2022-12-25T01:09:04.199Z,101538.50
2022-12-25T01:11:31.446Z,101545.06
2022-12-25T01:13:58.304Z,101542.66
2022-12-25T01:16:24.916Z,101547.66
2022-12-25T01:18:51.341Z,101551.88
2022-12-25T01:21:20.948Z,101557.72
2022-12-25T01:23:48.153Z,101552.63
2022-12-25T01:26:15.901Z,101554.50
2022-12-25T01:28:42.449Z,101556.31
2022-12-25T01:31:11.633Z,101557.88
2022-12-25T01:33:38.958Z,101557.88
2022-12-25T01:36:15.550Z,101564.50
2022-12-25T01:38:43.352Z,101563.41
2022-12-25T01:41:11.654Z,101555.19
2022-12-25T01:44:00.969Z,101549.09
2022-12-25T01:46:27.685Z,101540.09
2022-12-25T01:48:55.703Z,101542.25
2022-12-25T01:51:28.839Z,101536.16
2022-12-25T01:53:57.805Z,101544.09
2022-12-25T01:56:25.817Z,101551.81
2022-12-25T01:58:52.534Z,101558.44
2022-12-25T02:01:18.996Z,101556.63
2022-12-25T02:03:45.748Z,101555.59
2022-12-25T02:06:12.168Z,101562.25
2022-12-25T02:08:38.540Z,101554.59
2022-12-25T02:11:04.873Z,101558.09
2022-12-25T02:13:31.498Z,101548.81
2022-12-25T02:16:13.266Z,101549.41
2022-12-25T02:19:05.794Z,101557.09
2022-12-25T02:22:08.342Z,101561.91
2022-12-25T02:25:08.239Z,101553.22
2022-12-25T02:28:05.372Z,101549.81
2022-12-25T02:30:37.245Z,101543.72
2022-12-25T02:33:31.313Z,101555.31
2022-12-25T02:36:00.398Z,101549.47
2022-12-25T02:38:38.977Z,101549.97
2022-12-25T02:41:11.448Z,101553.66
2022-12-25T02:44:01.962Z,101559.44
2022-12-25T02:46:50.314Z,101550.50
2022-12-25T02:49:41.119Z,101540.97
2022-12-25T02:52:52.895Z,101538.06
2022-12-25T02:55:43.111Z,101538.31
2022-12-25T02:58:33.399Z,101539.16
2022-12-25T03:01:23.860Z,101532.47
2022-12-25T03:04:12.536Z,101528.69
2022-12-25T03:06:46.292Z,101515.97
2022-12-25T03:09:40.909Z,101507.50
2022-12-25T03:12:16.810Z,101502.69
2022-12-25T03:15:02.561Z,101501.06
2022-12-25T03:17:32.218Z,101494.22
2022-12-25T03:20:18.119Z,101483.59
2022-12-25T03:23:04.886Z,101486.19
2022-12-25T03:25:50.314Z,101480.84
2022-12-25T03:28:16.785Z,101475.75
2022-12-25T03:31:14.083Z,101482.34
2022-12-25T03:34:12.418Z,101491.56
2022-12-25T03:37:15.932Z,101483.34
2022-12-25T03:39:56.991Z,101488.09
2022-12-25T03:42:46.242Z,101490.72
2022-12-25T03:45:40.824Z,101491.22
2022-12-25T03:48:12.841Z,101489.09
2022-12-25T03:51:03.904Z,101489.59
2022-12-25T03:53:56.724Z,101492.75
2022-12-25T03:56:42.545Z,101487.75
2022-12-25T03:59:27.281Z,101498.31
2022-12-25T04:02:12.094Z,101496.47
2022-12-25T04:04:57.471Z,101485.94
2022-12-25T04:07:42.719Z,101475.69
2022-12-25T04:10:27.924Z,101473.09
2022-12-25T04:13:12.836Z,101476.88
2022-12-25T04:15:58.155Z,101476.44
2022-12-25T04:18:43.364Z,101474.56
2022-12-25T04:21:28.048Z,101471.94
2022-12-25T04:24:12.730Z,101474.06
2022-12-25T04:26:57.377Z,101478.84
2022-12-25T04:29:41.983Z,101475.69
2022-12-25T04:32:26.745Z,101492.91
2022-12-25T04:35:11.461Z,101498.78
2022-12-25T04:37:37.827Z,101490.53
2022-12-25T04:40:04.746Z,101494.56
2022-12-25T04:42:31.067Z,101480.84
2022-12-25T04:44:57.590Z,101483.00
2022-12-25T04:47:23.906Z,101485.63
2022-12-25T04:49:50.352Z,101485.13
2022-12-25T04:52:16.709Z,101485.41
2022-12-25T04:54:43.029Z,101478.03
2022-12-25T04:57:09.352Z,101482.53
2022-12-25T04:59:35.716Z,101481.22
2022-12-25T05:02:02.394Z,101477.00
2022-12-25T05:04:28.785Z,101466.44
2022-12-25T05:06:55.155Z,101458.25
2022-12-25T05:09:21.472Z,101456.44
2022-12-25T05:11:47.811Z,101465.41
2022-12-25T05:14:14.251Z,101463.84
2022-12-25T05:16:40.885Z,101461.22
2022-12-25T05:19:07.306Z,101456.72
2022-12-25T05:21:33.724Z,101451.44
2022-12-25T05:24:00.052Z,101442.47
2022-12-25T05:26:27.426Z,101436.09
2022-12-25T05:28:54.075Z,101438.75
2022-12-25T05:31:21.247Z,101437.97
2022-12-25T05:33:51.504Z,101434.78
2022-12-25T05:36:18.470Z,101424.50
2022-12-25T05:38:45.003Z,101423.13
2022-12-25T05:41:11.358Z,101418.66
2022-12-25T05:43:37.738Z,101416.81
2022-12-25T05:46:06.474Z,101418.16
2022-12-25T05:48:34.305Z,101427.94
2022-12-25T05:51:09.052Z,101426.38
2022-12-25T05:53:35.828Z,101429.50
2022-12-25T05:56:04.429Z,101423.13
2022-12-25T05:58:32.710Z,101430.53
2022-12-25T06:00:59.397Z,101425.75
2022-12-25T06:03:26.517Z,101434.19
2022-12-25T06:05:53.350Z,101431.75
2022-12-25T06:08:19.888Z,101428.06
2022-12-25T06:10:46.588Z,101421.94
2022-12-25T06:13:13.116Z,101413.44
2022-12-25T06:15:40.796Z,101404.44
2022-12-25T06:18:07.353Z,101395.44
2022-12-25T06:20:34.069Z,101402.28
2022-12-25T06:23:01.036Z,101392.00
2022-12-25T06:25:27.406Z,101401.25
2022-12-25T06:27:54.846Z,101405.47
2022-12-25T06:30:21.614Z,101410.75
2022-12-25T06:32:47.949Z,101410.16
2022-12-25T06:35:14.464Z,101405.91
2022-12-25T06:37:40.797Z,101402.13
2022-12-25T06:40:07.870Z,101410.00
2022-12-25T06:42:34.205Z,101399.66
2022-12-25T06:45:00.508Z,101382.41
2022-12-25T06:47:26.818Z,101380.00
2022-12-25T06:49:53.156Z,101382.06
2022-12-25T06:52:19.487Z,101393.16
2022-12-25T06:54:46.995Z,101389.94
2022-12-25T06:57:13.387Z,101384.38
2022-12-25T06:59:39.722Z,101378.00
2022-12-25T07:02:06.233Z,101376.13
2022-12-25T07:04:42.248Z,101371.88
2022-12-25T07:07:09.720Z,101368.91
2022-12-25T07:09:38.526Z,101372.06
2022-12-25T07:12:20.325Z,101369.41
2022-12-25T07:14:48.923Z,101365.97
2022-12-25T07:17:19.899Z,101376.28
2022-12-25T07:19:47.189Z,101380.53
2022-12-25T07:22:14.585Z,101377.88
2022-12-25T07:24:40.913Z,101393.75
2022-12-25T07:27:08.204Z,101396.13
2022-12-25T07:29:34.919Z,101391.59
2022-12-25T07:32:01.741Z,101385.22
2022-12-25T07:34:28.135Z,101392.09
2022-12-25T07:36:55.000Z,101388.38
2022-12-25T07:39:21.417Z,101386.25
2022-12-25T07:41:47.782Z,101387.03
2022-12-25T07:44:14.446Z,101384.38
2022-12-25T07:46:40.847Z,101383.59
2022-12-25T07:49:07.183Z,101399.19
2022-12-25T07:51:33.571Z,101410.56
2022-12-25T07:53:59.954Z,101416.63
2022-12-25T07:56:26.296Z,101409.00
2022-12-25T07:58:52.661Z,101404.47
2022-12-25T08:01:21.842Z,101406.03
2022-12-25T08:03:57.088Z,101411.34
2022-12-25T08:06:29.405Z,101412.91
2022-12-25T08:08:57.225Z,101412.13
2022-12-25T08:11:23.578Z,101418.22
2022-12-25T08:13:49.916Z,101419.81
2022-12-25T08:16:16.310Z,101423.25
2022-12-25T08:18:43.568Z,101419.50
2022-12-25T08:21:12.992Z,101429.03
2022-12-25T08:23:41.999Z,101443.84
2022-12-25T08:26:11.154Z,101439.63
2022-12-25T08:28:37.584Z,101432.47
2022-12-25T08:31:30.506Z,101431.38
2022-12-25T08:33:58.541Z,101426.88
2022-12-25T08:36:25.265Z,101433.78
2022-12-25T08:38:52.714Z,101426.59
2022-12-25T08:41:22.919Z,101434.56
2022-12-25T08:43:49.430Z,101426.31
2022-12-25T08:46:15.793Z,101407.78
2022-12-25T08:48:43.882Z,101408.28
2022-12-25T08:51:17.342Z,101398.47
2022-12-25T08:53:44.797Z,101400.06
2022-12-25T08:56:11.300Z,101391.81
2022-12-25T08:58:38.143Z,101403.19
2022-12-25T09:01:05.277Z,101402.91
2022-12-25T09:03:34.786Z,101396.53
2022-12-25T09:06:06.171Z,101404.22
2022-12-25T09:08:32.861Z,101410.00
2022-12-25T09:11:08.241Z,101399.09
2022-12-25T09:13:35.077Z,101387.47
2022-12-25T09:16:09.838Z,101395.13
2022-12-25T09:18:36.306Z,101398.53
2022-12-25T09:21:05.930Z,101413.06
2022-12-25T09:23:32.589Z,101416.50
2022-12-25T09:26:00.328Z,101407.50
2022-12-25T09:28:26.732Z,101406.91
2022-12-25T09:30:53.848Z,101415.66
2022-12-25T09:33:20.945Z,101424.38
2022-12-25T09:35:58.938Z,101423.31
2022-12-25T09:38:25.774Z,101438.13
2022-12-25T09:41:07.253Z,101438.13
2022-12-25T09:43:40.694Z,101430.97
2022-12-25T09:46:14.638Z,101411.66
2022-12-25T09:48:47.924Z,101402.63
2022-12-25T09:51:17.029Z,101407.91
2022-12-25T09:53:51.649Z,101401.53
2022-12-25T09:56:25.528Z,101399.38
2022-12-25T09:58:53.476Z,101403.88
2022-12-25T10:01:40.505Z,101404.69
2022-12-25T10:04:50.225Z,101387.22
2022-12-25T10:07:43.338Z,101382.69
2022-12-25T10:10:54.920Z,101383.47
2022-12-25T10:13:51.122Z,101392.50
2022-12-25T10:16:31.849Z,101381.91
2022-12-25T10:19:18.929Z,101379.25
2022-12-25T10:21:46.267Z,101376.63
2022-12-25T10:24:26.512Z,101371.31
2022-12-25T10:26:55.466Z,101371.31
2022-12-25T10:29:22.016Z,101369.44
2022-12-25T10:31:52.245Z,101364.16
2022-12-25T10:34:18.554Z,101364.66
2022-12-25T10:36:46.117Z,101361.72
2022-12-25T10:39:20.234Z,101354.56
2022-12-25T10:42:22.385Z,101349.75
2022-12-25T10:45:15.254Z,101360.06
2022-12-25T10:47:42.566Z,101343.09
2022-12-25T10:50:11.717Z,101357.13
2022-12-25T10:52:53.941Z,101349.97
2022-12-25T10:55:26.580Z,101337.81
2022-12-25T10:57:55.141Z,101327.19
2022-12-25T11:00:24.630Z,101320.34
2022-12-25T11:02:51.623Z,101312.38
2022-12-25T11:05:32.040Z,101310.22
2022-12-25T11:08:01.063Z,101311.31
2022-12-25T11:10:31.685Z,101298.53
2022-12-25T11:12:59.622Z,101287.69
2022-12-25T11:15:36.736Z,101291.09
2022-12-25T11:18:24.979Z,101285.81
2022-12-25T11:20:54.016Z,101283.63
2022-12-25T11:23:22.390Z,101276.00
2022-12-25T11:26:05.943Z,101274.13
2022-12-25T11:28:35.053Z,101264.00
2022-12-25T11:31:07.507Z,101269.00
2022-12-25T11:33:45.102Z,101261.28
2022-12-25T11:36:20.440Z,101241.88
2022-12-25T11:38:46.935Z,101225.97
2022-12-25T11:41:20.388Z,101231.75
2022-12-25T11:43:56.537Z,101227.94
2022-12-25T11:46:28.926Z,101217.53
2022-12-25T11:49:02.065Z,101222.25
2022-12-25T11:51:35.233Z,101224.31
2022-12-25T11:54:18.213Z,101216.34
2022-12-25T11:56:44.582Z,101217.91
2022-12-25T11:59:23.960Z,101231.94
2022-12-25T12:02:00.193Z,101223.22
2022-12-25T12:04:42.008Z,101226.16
2022-12-25T12:07:31.956Z,101230.22
2022-12-25T12:10:15.314Z,101223.31
2022-12-25T12:13:01.007Z,101225.38
2022-12-25T12:15:30.752Z,101231.16
2022-12-25T12:18:09.236Z,101219.69
2022-12-25T12:20:36.694Z,101213.81
2022-12-25T12:23:12.662Z,101211.16
2022-12-25T12:25:42.290Z,101204.56
2022-12-25T12:28:20.570Z,101196.59
2022-12-25T12:31:06.181Z,101200.03
2022-12-25T12:33:41.412Z,101203.19
2022-12-25T12:36:12.823Z,101194.47
2022-12-25T12:38:40.952Z,101183.34
2022-12-25T12:41:08.884Z,101176.78
2022-12-25T12:43:39.787Z,101182.56
2022-12-25T12:46:25.938Z,101172.25
2022-12-25T12:49:22.555Z,101173.34
2022-12-25T12:51:49.006Z,101176.00
2022-12-25T12:54:23.788Z,101185.53
2022-12-25T12:57:21.474Z,101192.69
2022-12-25T12:59:48.021Z,101190.81
2022-12-25T13:02:26.610Z,101182.38
2022-12-25T13:05:03.175Z,101181.00
2022-12-25T13:07:53.510Z,101174.91
2022-12-25T13:10:31.448Z,101161.66
2022-12-25T13:13:01.631Z,101155.56
2022-12-25T13:15:31.892Z,101147.91
2022-12-25T13:18:03.296Z,101139.94
2022-12-25T13:20:54.726Z,101142.59
2022-12-25T13:23:24.235Z,101132.00
2022-12-25T13:25:59.278Z,101133.88
2022-12-25T13:28:38.641Z,101134.66
2022-12-25T13:31:10.893Z,101139.94
2022-12-25T13:33:37.604Z,101132.31
2022-12-25T13:36:05.622Z,101123.25
2022-12-25T13:38:31.974Z,101116.41
2022-12-25T13:41:17.549Z,101129.34
2022-12-25T13:43:45.240Z,101111.09
2022-12-25T13:46:14.243Z,101109.22
2022-12-25T13:48:41.591Z,101118.75
2022-12-25T13:51:16.052Z,101118.75
2022-12-25T13:53:43.751Z,101130.16
2022-12-25T13:56:15.107Z,101126.41
2022-12-25T13:58:42.166Z,101116.09
2022-12-25T14:01:11.574Z,101108.13
2022-12-25T14:03:42.635Z,101110.31
2022-12-25T14:06:25.718Z,101111.88
2022-12-25T14:08:54.796Z,101111.88
2022-12-25T14:11:23.872Z,101103.91
2022-12-25T14:13:54.075Z,101103.13
2022-12-25T14:16:21.502Z,101113.75
2022-12-25T14:18:56.184Z,101118.25
2022-12-25T14:21:30.422Z,101114.06
2022-12-25T14:23:57.299Z,101111.41
2022-12-25T14:26:27.393Z,101114.84
2022-12-25T14:29:15.661Z,101117.47
2022-12-25T14:31:43.794Z,101108.75
2022-12-25T14:34:21.580Z,101108.75
2022-12-25T14:36:48.913Z,101107.97
2022-12-25T14:39:30.087Z,101112.47
2022-12-25T14:41:56.700Z,101096.59
2022-12-25T14:44:34.527Z,101089.72
2022-12-25T14:47:20.619Z,101086.75
2022-12-25T14:49:47.878Z,101087.53
2022-12-25T14:52:42.018Z,101079.91
2022-12-25T14:55:18.649Z,101080.94
2022-12-25T14:57:49.216Z,101085.47
2022-12-25T15:00:21.985Z,101088.13
2022-12-25T15:02:50.448Z,101085.47
2022-12-25T15:05:37.172Z,101089.22
2022-12-25T15:08:19.511Z,101095.28
2022-12-25T15:10:59.821Z,101094.50
2022-12-25T15:13:27.646Z,101091.38
2022-12-25T15:16:15.898Z,101091.38
2022-12-25T15:18:45.129Z,101092.94
2022-12-25T15:21:25.610Z,101107.00
2022-12-25T15:23:53.959Z,101102.47
2022-12-25T15:26:20.266Z,101092.66
2022-12-25T15:28:46.657Z,101097.66
2022-12-25T15:31:33.250Z,101099.50
2022-12-25T15:34:02.212Z,101096.06
2022-12-25T15:36:28.908Z,101099.81
2022-12-25T15:38:56.130Z,101095.59
2022-12-25T15:41:44.879Z,101098.25
2022-12-25T15:44:12.481Z,101092.47
2022-12-25T15:46:39.456Z,101084.53
2022-12-25T15:49:05.952Z,101081.88
2022-12-25T15:51:32.545Z,101084.53
2022-12-25T15:53:59.550Z,101081.88
2022-12-25T15:56:26.692Z,101075.78
2022-12-25T15:58:52.995Z,101076.56
2022-12-25T16:01:20.456Z,101065.78
2022-12-25T16:03:47.320Z,101063.13
2022-12-25T16:06:16.374Z,101048.00
2022-12-25T16:08:43.337Z,101048.00
2022-12-25T16:11:10.159Z,101069.97
2022-12-25T16:13:36.603Z,101071.84
2022-12-25T16:16:04.086Z,101071.66
2022-12-25T16:18:30.963Z,101071.66
2022-12-25T16:20:58.839Z,101079.13
2022-12-25T16:23:25.341Z,101067.75
2022-12-25T16:25:51.792Z,101079.91
2022-12-25T16:28:18.175Z,101078.03
2022-12-25T16:30:44.506Z,101068.53
2022-12-25T16:33:11.428Z,101071.19
2022-12-25T16:35:38.233Z,101065.09
2022-12-25T16:38:04.566Z,101054.81
2022-12-25T16:40:31.352Z,101056.13
2022-12-25T16:42:57.952Z,101055.34
2022-12-25T16:45:24.268Z,101044.75
2022-12-25T16:47:50.653Z,101028.06
2022-12-25T16:50:17.063Z,101022.78
2022-12-25T16:52:43.416Z,101041.31
2022-12-25T16:55:09.846Z,101037.91
2022-12-25T16:57:36.235Z,101039.75
2022-12-25T17:00:02.537Z,101044.75
2022-12-25T17:02:29.030Z,101047.94
2022-12-25T17:04:55.632Z,101047.94
2022-12-25T17:07:22.032Z,101042.88
2022-12-25T17:09:49.241Z,101044.75
2022-12-25T17:12:16.285Z,101033.38
2022-12-25T17:14:42.902Z,101032.59
2022-12-25T17:17:09.388Z,101034.16
2022-12-25T17:19:35.736Z,101034.16
2022-12-25T17:22:02.152Z,101042.88
2022-12-25T17:24:28.936Z,101042.41
2022-12-25T17:26:55.439Z,101044.88
2022-12-25T17:29:22.997Z,101043.31
2022-12-25T17:31:50.005Z,101038.31
2022-12-25T17:34:16.558Z,101039.09
2022-12-25T17:36:42.923Z,101037.22
2022-12-25T17:39:10.693Z,101050.47
2022-12-25T17:41:37.098Z,101038.31
2022-12-25T17:44:03.773Z,101033.31
2022-12-25T17:46:30.510Z,101036.44
2022-12-25T17:48:58.781Z,101045.16
2022-12-25T17:51:27.413Z,101048.13
2022-12-25T17:53:56.067Z,101055.00
2022-12-25T17:56:23.764Z,101054.22
2022-12-25T17:58:55.429Z,101049.22
2022-12-25T18:01:23.600Z,101055.56
2022-12-25T18:03:50.817Z,101050.09
2022-12-25T18:06:20.535Z,101038.72
2022-12-25T18:08:48.029Z,101028.91
2022-12-25T18:11:21.278Z,101027.34
2022-12-25T18:13:51.759Z,101024.19
2022-12-25T18:16:20.588Z,101021.84
2022-12-25T18:18:51.899Z,101028.72
2022-12-25T18:21:20.192Z,101028.72
2022-12-25T18:23:46.855Z,101021.06
2022-12-25T18:26:13.695Z,101012.63
2022-12-25T18:28:42.243Z,101017.63
2022-12-25T18:31:11.659Z,101025.06
2022-12-25T18:33:38.109Z,101033.03
2022-12-25T18:36:05.050Z,101029.59
2022-12-25T18:38:31.397Z,101033.81
2022-12-25T18:40:57.999Z,101028.50
2022-12-25T18:43:51.320Z,101035.41
2022-12-25T18:46:11.089Z,101038.03
2022-12-25T18:48:37.541Z,101043.63
2022-12-25T18:51:07.009Z,101041.28
2022-12-25T18:53:34.709Z,101041.28
2022-12-25T18:56:13.338Z,101043.94
2022-12-25T18:58:39.745Z,101034.13
2022-12-25T19:01:17.604Z,101034.41
2022-12-25T19:03:45.119Z,101024.91
2022-12-25T19:06:27.921Z,101020.38
2022-12-25T19:08:55.358Z,101022.44
2022-12-25T19:11:22.575Z,101030.69
2022-12-25T19:13:49.430Z,101031.75
2022-12-25T19:16:15.827Z,101028.34
2022-12-25T19:18:42.933Z,101016.97
2022-12-25T19:21:10.043Z,101016.97
2022-12-25T19:23:37.771Z,101012.44
2022-12-25T19:26:05.529Z,101015.88
2022-12-25T19:28:32.037Z,101015.56
2022-12-25T19:31:01.533Z,101016.34
2022-12-25T19:33:29.997Z,101016.34
2022-12-25T19:36:05.147Z,101022.16
2022-12-25T19:38:31.532Z,101021.38
2022-12-25T19:41:01.090Z,101023.22
2022-12-25T19:43:36.732Z,101030.09
2022-12-25T19:46:04.536Z,101029.31
2022-12-25T19:48:32.116Z,101035.41
2022-12-25T19:50:58.773Z,101047.06
2022-12-25T19:53:25.590Z,101039.91
2022-12-25T19:55:53.791Z,101052.06
2022-12-25T19:58:20.791Z,101048.63
2022-12-25T20:01:11.687Z,101044.91
2022-12-25T20:03:45.508Z,101041.47
2022-12-25T20:06:25.719Z,101040.38
2022-12-25T20:08:54.581Z,101044.13
2022-12-25T20:11:24.947Z,101042.72
2022-12-25T20:13:51.316Z,101045.38
2022-12-25T20:16:17.986Z,101052.25
2022-12-25T20:18:44.362Z,101041.66
2022-12-25T20:21:14.374Z,101045.06
2022-12-25T20:23:45.808Z,101044.81
2022-12-25T20:26:13.215Z,101050.09
2022-12-25T20:28:41.604Z,101048.22
2022-12-25T20:31:20.440Z,101052.75
2022-12-25T20:33:46.883Z,101048.53
2022-12-25T20:36:14.045Z,101037.94
2022-12-25T20:38:40.810Z,101040.28
2022-12-25T20:41:28.831Z,101046.38
2022-12-25T20:43:56.255Z,101043.72
2022-12-25T20:46:23.012Z,101042.63
2022-12-25T20:48:49.526Z,101039.69
2022-12-25T20:51:18.653Z,101044.19
2022-12-25T20:53:45.731Z,101051.88
2022-12-25T20:56:14.268Z,101051.88
2022-12-25T20:58:40.760Z,101048.13
2022-12-25T21:01:10.109Z,101050.00
2022-12-25T21:03:36.710Z,101045.75
2022-12-25T21:06:03.233Z,101056.34
2022-12-25T21:08:29.954Z,101057.16
2022-12-25T21:11:00.685Z,101065.91
2022-12-25T21:13:33.368Z,101062.47
2022-12-25T21:16:00.294Z,101060.28
2022-12-25T21:18:28.295Z,101055.78
2022-12-25T21:20:57.161Z,101061.06
2022-12-25T21:23:26.547Z,101063.41
2022-12-25T21:25:54.541Z,101067.81
2022-12-25T21:28:21.439Z,101059.88
2022-12-25T21:30:47.892Z,101065.19
2022-12-25T21:33:33.149Z,101067.81
2022-12-25T21:36:10.853Z,101076.56
2022-12-25T21:38:38.027Z,101099.63
2022-12-25T21:41:05.327Z,101095.88
2022-12-25T21:43:33.355Z,101100.94
2022-12-25T21:46:08.340Z,101098.78
2022-12-25T21:48:36.995Z,101092.38
2022-12-25T21:51:23.471Z,101095.81
2022-12-25T21:53:49.842Z,101097.38
2022-12-25T21:56:16.577Z,101092.84
2022-12-25T21:58:42.968Z,101095.22
2022-12-25T22:01:11.585Z,101095.22
2022-12-25T22:03:37.995Z,101098.34
2022-12-25T22:06:23.088Z,101097.28
2022-12-25T22:08:49.412Z,101108.97
2022-12-25T22:11:34.078Z,101102.56
2022-12-25T22:14:18.639Z,101098.84
2022-12-25T22:17:23.511Z,101093.84
2022-12-25T22:19:50.169Z,101103.66
2022-12-25T22:22:21.515Z,101104.13
2022-12-25T22:24:52.657Z,101099.66
2022-12-25T22:27:19.972Z,101104.63
2022-12-25T22:29:46.350Z,101104.63
2022-12-25T22:32:13.753Z,101115.25
2022-12-25T22:34:40.581Z,101112.59
2022-12-25T22:37:08.427Z,101091.88
2022-12-25T22:39:35.556Z,101084.41
2022-12-25T22:42:02.128Z,101089.72
2022-12-25T22:44:30.749Z,101073.81
2022-12-25T22:46:57.549Z,101075.84
2022-12-25T22:49:24.994Z,101083.81
2022-12-25T22:51:51.570Z,101088.31
2022-12-25T22:54:19.746Z,101077.72
2022-12-25T22:56:49.382Z,101070.56
2022-12-25T22:59:18.004Z,101080.69
2022-12-25T23:01:44.501Z,101078.03
2022-12-25T23:04:11.485Z,101086.75
2022-12-25T23:06:38.569Z,101106.88
2022-12-25T23:09:07.298Z,101097.06
2022-12-25T23:11:35.170Z,101093.31
2022-12-25T23:14:19.908Z,101104.44
2022-12-25T23:16:46.257Z,101087.44
2022-12-25T23:19:32.509Z,101084.78
2022-12-25T23:22:17.145Z,101078.38
2022-12-25T23:25:02.447Z,101075.75
2022-12-25T23:27:28.802Z,101062.47
2022-12-25T23:29:55.109Z,101073.09
2022-12-25T23:32:25.456Z,101067.47
2022-12-25T23:34:52.368Z,101072.78
2022-12-25T23:37:19.351Z,101079.16
2022-12-25T23:39:46.254Z,101093.22
2022-12-25T23:42:12.703Z,101094.78
2022-12-25T23:44:39.066Z,101099.00
2022-12-25T23:47:05.497Z,101106.97
2022-12-25T23:49:31.929Z,101113.84
2022-12-25T23:51:58.370Z,101097.94
2022-12-25T23:54:30.604Z,101092.63
2022-12-25T23:56:58.038Z,101105.88
2022-12-25T23:59:29.592Z,101101.34
